Terminal Aerodrome Forecast
Issued by NWS

Home | Current Version | Previous Version | Text Only | Print | Product List | Glossary On
Versions: 1 2 3 4 5 6 7 8 9 10 11 12 13 14 15 16
000
FTUS45 KGGW 171725
TAFGDV
TAF
KGDV 171725Z 1718/1818 VRB04KT P6SM BKN160
     FM172100 27009KT P6SM SCT150
     FM180000 30009KT P6SM BKN070
     FM180600 30012G20KT P6SM SCT070
     FM181200 29009KT P6SM SCT090=

USA.gov is the U.S. government's official web portal to all federal, state and local government web resources and services.